sensor_id;sensor_type;location;lat;lon;timestamp;temperature;humidity
19538;DHT22;9914;51.008;4.300;2022-10-13T00:01:25;14.80;99.90
19538;DHT22;9914;51.008;4.300;2022-10-13T00:03:51;14.80;99.90
19538;DHT22;9914;51.008;4.300;2022-10-13T00:06:18;14.80;99.90
19538;DHT22;9914;51.008;4.300;2022-10-13T00:08:44;14.90;99.90
19538;DHT22;9914;51.008;4.300;2022-10-13T00:11:15;15.00;99.90
19538;DHT22;9914;51.008;4.300;2022-10-13T00:13:42;15.00;99.90
19538;DHT22;9914;51.008;4.300;2022-10-13T00:16:09;14.90;99.90
19538;DHT22;9914;51.008;4.300;2022-10-13T00:18:35;14.80;99.90
19538;DHT22;9914;51.008;4.300;2022-10-13T00:21:06;14.80;99.90
19538;DHT22;9914;51.008;4.300;2022-10-13T00:23:33;14.80;99.90
19538;DHT22;9914;51.008;4.300;2022-10-13T00:26:03;14.90;99.90
19538;DHT22;9914;51.008;4.300;2022-10-13T00:28:29;15.00;99.90
19538;DHT22;9914;51.008;4.300;2022-10-13T00:30:55;15.00;99.90
19538;DHT22;9914;51.008;4.300;2022-10-13T00:33:20;14.90;99.90
19538;DHT22;9914;51.008;4.300;2022-10-13T00:35:47;14.90;99.90
19538;DHT22;9914;51.008;4.300;2022-10-13T00:38:15;14.90;99.90
19538;DHT22;9914;51.008;4.300;2022-10-13T00:40:50;14.90;99.90
19538;DHT22;9914;51.008;4.300;2022-10-13T00:43:24;14.90;99.90
19538;DHT22;9914;51.008;4.300;2022-10-13T00:45:52;14.90;99.90
19538;DHT22;9914;51.008;4.300;2022-10-13T00:48:21;14.90;99.90
19538;DHT22;9914;51.008;4.300;2022-10-13T00:50:48;15.00;99.90
19538;DHT22;9914;51.008;4.300;2022-10-13T00:53:15;15.10;99.90
19538;DHT22;9914;51.008;4.300;2022-10-13T00:55:43;15.10;99.90
19538;DHT22;9914;51.008;4.300;2022-10-13T00:58:12;15.00;99.90
19538;DHT22;9914;51.008;4.300;2022-10-13T01:00:44;15.00;99.90
19538;DHT22;9914;51.008;4.300;2022-10-13T01:03:11;15.00;99.90
19538;DHT22;9914;51.008;4.300;2022-10-13T01:05:38;15.10;99.90
19538;DHT22;9914;51.008;4.300;2022-10-13T01:08:04;15.10;99.90
19538;DHT22;9914;51.008;4.300;2022-10-13T01:13:33;14.90;99.90
19538;DHT22;9914;51.008;4.300;2022-10-13T01:16:12;14.80;99.90
19538;DHT22;9914;51.008;4.300;2022-10-13T01:18:49;14.80;99.90
19538;DHT22;9914;51.008;4.300;2022-10-13T01:34:39;14.60;99.90
19538;DHT22;9914;51.008;4.300;2022-10-13T01:37:20;14.70;99.90
19538;DHT22;9914;51.008;4.300;2022-10-13T01:40:02;14.70;99.90
19538;DHT22;9914;51.008;4.300;2022-10-13T01:43:02;14.70;99.90
19538;DHT22;9914;51.008;4.300;2022-10-13T01:45:39;14.70;99.90
19538;DHT22;9914;51.008;4.300;2022-10-13T01:48:07;14.70;99.90
19538;DHT22;9914;51.008;4.300;2022-10-13T01:50:36;14.70;99.90
19538;DHT22;9914;51.008;4.300;2022-10-13T01:53:03;14.70;99.90
19538;DHT22;9914;51.008;4.300;2022-10-13T01:55:30;14.70;99.90
19538;DHT22;9914;51.008;4.300;2022-10-13T01:57:57;14.60;99.90
19538;DHT22;9914;51.008;4.300;2022-10-13T02:00:22;14.70;99.90
19538;DHT22;9914;51.008;4.300;2022-10-13T02:10:33;14.90;99.90
19538;DHT22;9914;51.008;4.300;2022-10-13T02:13:05;14.90;99.90
19538;DHT22;9914;51.008;4.300;2022-10-13T02:15:44;15.00;99.90
19538;DHT22;9914;51.008;4.300;2022-10-13T02:18:14;14.90;99.90
19538;DHT22;9914;51.008;4.300;2022-10-13T02:20:42;14.80;99.90
19538;DHT22;9914;51.008;4.300;2022-10-13T02:23:12;14.90;99.90
19538;DHT22;9914;51.008;4.300;2022-10-13T02:25:39;14.90;99.90
19538;DHT22;9914;51.008;4.300;2022-10-13T02:28:06;14.90;99.90
19538;DHT22;9914;51.008;4.300;2022-10-13T02:30:32;14.90;99.90
19538;DHT22;9914;51.008;4.300;2022-10-13T02:33:00;14.90;99.90
19538;DHT22;9914;51.008;4.300;2022-10-13T02:35:26;14.90;99.90
19538;DHT22;9914;51.008;4.300;2022-10-13T02:37:52;15.00;99.90
19538;DHT22;9914;51.008;4.300;2022-10-13T02:40:17;14.90;99.90
19538;DHT22;9914;51.008;4.300;2022-10-13T02:42:43;14.90;99.90
19538;DHT22;9914;51.008;4.300;2022-10-13T02:45:09;14.90;99.90
19538;DHT22;9914;51.008;4.300;2022-10-13T02:47:35;14.90;99.90
19538;DHT22;9914;51.008;4.300;2022-10-13T02:50:01;14.90;99.90
19538;DHT22;9914;51.008;4.300;2022-10-13T02:52:27;14.90;99.90
19538;DHT22;9914;51.008;4.300;2022-10-13T02:54:52;14.90;99.90
19538;DHT22;9914;51.008;4.300;2022-10-13T02:57:18;14.90;99.90
19538;DHT22;9914;51.008;4.300;2022-10-13T02:59:44;15.00;99.90
19538;DHT22;9914;51.008;4.300;2022-10-13T03:02:10;15.00;99.90
19538;DHT22;9914;51.008;4.300;2022-10-13T03:04:36;14.90;99.90
19538;DHT22;9914;51.008;4.300;2022-10-13T03:07:01;14.90;99.90
19538;DHT22;9914;51.008;4.300;2022-10-13T03:09:27;14.80;99.90
19538;DHT22;9914;51.008;4.300;2022-10-13T03:11:53;14.70;99.90
19538;DHT22;9914;51.008;4.300;2022-10-13T03:14:18;14.70;99.90
19538;DHT22;9914;51.008;4.300;2022-10-13T03:16:44;14.70;99.90
19538;DHT22;9914;51.008;4.300;2022-10-13T03:19:10;14.60;99.90
19538;DHT22;9914;51.008;4.300;2022-10-13T03:21:39;14.50;99.90
19538;DHT22;9914;51.008;4.300;2022-10-13T03:24:04;14.50;99.90
19538;DHT22;9914;51.008;4.300;2022-10-13T03:26:31;14.60;99.90
19538;DHT22;9914;51.008;4.300;2022-10-13T03:28:57;14.60;99.90
19538;DHT22;9914;51.008;4.300;2022-10-13T03:31:22;14.70;99.90
19538;DHT22;9914;51.008;4.300;2022-10-13T03:33:49;14.80;99.90
19538;DHT22;9914;51.008;4.300;2022-10-13T03:36:15;14.70;99.90
19538;DHT22;9914;51.008;4.300;2022-10-13T03:38:41;14.70;99.90
19538;DHT22;9914;51.008;4.300;2022-10-13T03:41:08;14.70;99.90
19538;DHT22;9914;51.008;4.300;2022-10-13T03:43:34;14.70;99.90
19538;DHT22;9914;51.008;4.300;2022-10-13T03:46:01;14.60;99.90
19538;DHT22;9914;51.008;4.300;2022-10-13T03:48:28;14.60;99.90
19538;DHT22;9914;51.008;4.300;2022-10-13T03:50:54;14.60;99.90
19538;DHT22;9914;51.008;4.300;2022-10-13T03:53:20;14.60;99.90
19538;DHT22;9914;51.008;4.300;2022-10-13T03:55:54;14.50;99.90
19538;DHT22;9914;51.008;4.300;2022-10-13T03:58:20;14.40;99.90
19538;DHT22;9914;51.008;4.300;2022-10-13T04:00:48;14.30;99.90
19538;DHT22;9914;51.008;4.300;2022-10-13T04:03:14;14.30;99.90
19538;DHT22;9914;51.008;4.300;2022-10-13T04:05:40;14.30;99.90
19538;DHT22;9914;51.008;4.300;2022-10-13T04:08:05;14.40;99.90
19538;DHT22;9914;51.008;4.300;2022-10-13T04:10:31;14.40;99.90
19538;DHT22;9914;51.008;4.300;2022-10-13T04:12:57;14.40;99.90
19538;DHT22;9914;51.008;4.300;2022-10-13T04:15:22;14.40;99.90
19538;DHT22;9914;51.008;4.300;2022-10-13T04:17:48;14.30;99.90
19538;DHT22;9914;51.008;4.300;2022-10-13T04:20:15;14.30;99.90
19538;DHT22;9914;51.008;4.300;2022-10-13T04:22:40;14.30;99.90
19538;DHT22;9914;51.008;4.300;2022-10-13T04:25:06;14.20;99.90
19538;DHT22;9914;51.008;4.300;2022-10-13T04:27:32;14.20;99.90
19538;DHT22;9914;51.008;4.300;2022-10-13T04:29:58;14.10;99.90
19538;DHT22;9914;51.008;4.300;2022-10-13T04:32:24;14.20;99.90
19538;DHT22;9914;51.008;4.300;2022-10-13T04:34:49;14.10;99.90
19538;DHT22;9914;51.008;4.300;2022-10-13T04:37:15;14.10;99.90
19538;DHT22;9914;51.008;4.300;2022-10-13T04:39:40;14.10;99.90
19538;DHT22;9914;51.008;4.300;2022-10-13T04:42:06;14.00;99.90
19538;DHT22;9914;51.008;4.300;2022-10-13T04:44:32;14.20;99.90
19538;DHT22;9914;51.008;4.300;2022-10-13T04:46:57;14.40;99.90
19538;DHT22;9914;51.008;4.300;2022-10-13T04:49:25;14.50;99.90
19538;DHT22;9914;51.008;4.300;2022-10-13T04:51:50;14.50;99.90
19538;DHT22;9914;51.008;4.300;2022-10-13T04:54:16;14.40;99.90
19538;DHT22;9914;51.008;4.300;2022-10-13T04:56:45;14.50;99.90
19538;DHT22;9914;51.008;4.300;2022-10-13T04:59:11;14.50;99.90
19538;DHT22;9914;51.008;4.300;2022-10-13T05:01:37;14.60;99.90
19538;DHT22;9914;51.008;4.300;2022-10-13T05:04:03;14.60;99.90
19538;DHT22;9914;51.008;4.300;2022-10-13T05:06:32;14.60;99.90
19538;DHT22;9914;51.008;4.300;2022-10-13T05:08:58;14.60;99.90
19538;DHT22;9914;51.008;4.300;2022-10-13T05:11:25;14.60;99.90
19538;DHT22;9914;51.008;4.300;2022-10-13T05:13:51;14.50;99.90
19538;DHT22;9914;51.008;4.300;2022-10-13T05:16:18;14.50;99.90
19538;DHT22;9914;51.008;4.300;2022-10-13T05:18:45;14.40;99.90
19538;DHT22;9914;51.008;4.300;2022-10-13T05:21:18;14.60;99.90
19538;DHT22;9914;51.008;4.300;2022-10-13T05:23:44;14.70;99.90
19538;DHT22;9914;51.008;4.300;2022-10-13T05:26:13;14.60;99.90
19538;DHT22;9914;51.008;4.300;2022-10-13T05:28:39;14.60;99.90
19538;DHT22;9914;51.008;4.300;2022-10-13T05:31:14;14.50;99.90
19538;DHT22;9914;51.008;4.300;2022-10-13T05:33:41;14.50;99.90
19538;DHT22;9914;51.008;4.300;2022-10-13T05:36:10;14.50;99.90
19538;DHT22;9914;51.008;4.300;2022-10-13T05:38:35;14.40;99.90
19538;DHT22;9914;51.008;4.300;2022-10-13T05:41:03;14.40;99.90
19538;DHT22;9914;51.008;4.300;2022-10-13T05:43:30;14.40;99.90
19538;DHT22;9914;51.008;4.300;2022-10-13T05:45:56;14.30;99.90
19538;DHT22;9914;51.008;4.300;2022-10-13T05:48:21;14.20;99.90
19538;DHT22;9914;51.008;4.300;2022-10-13T05:50:47;14.30;99.90
19538;DHT22;9914;51.008;4.300;2022-10-13T05:53:12;14.40;99.90
19538;DHT22;9914;51.008;4.300;2022-10-13T05:55:38;14.40;99.90
19538;DHT22;9914;51.008;4.300;2022-10-13T05:58:04;14.30;99.90
19538;DHT22;9914;51.008;4.300;2022-10-13T06:00:30;14.30;99.90
19538;DHT22;9914;51.008;4.300;2022-10-13T06:03:08;14.30;99.90
19538;DHT22;9914;51.008;4.300;2022-10-13T06:05:35;14.40;99.90
19538;DHT22;9914;51.008;4.300;2022-10-13T06:08:01;14.40;99.90
19538;DHT22;9914;51.008;4.300;2022-10-13T06:10:27;14.50;99.90
19538;DHT22;9914;51.008;4.300;2022-10-13T06:12:53;14.50;99.90
19538;DHT22;9914;51.008;4.300;2022-10-13T06:15:19;14.60;99.90
19538;DHT22;9914;51.008;4.300;2022-10-13T06:17:44;14.60;99.90
19538;DHT22;9914;51.008;4.300;2022-10-13T06:20:10;14.60;99.90
19538;DHT22;9914;51.008;4.300;2022-10-13T06:22:37;14.40;99.90
19538;DHT22;9914;51.008;4.300;2022-10-13T06:25:04;14.50;99.90
19538;DHT22;9914;51.008;4.300;2022-10-13T06:27:30;14.40;99.90
19538;DHT22;9914;51.008;4.300;2022-10-13T06:29:57;14.50;99.90
19538;DHT22;9914;51.008;4.300;2022-10-13T06:32:23;14.50;99.90
19538;DHT22;9914;51.008;4.300;2022-10-13T06:34:49;14.40;99.90
19538;DHT22;9914;51.008;4.300;2022-10-13T06:37:15;14.40;99.90
19538;DHT22;9914;51.008;4.300;2022-10-13T06:39:40;14.40;99.90
19538;DHT22;9914;51.008;4.300;2022-10-13T06:42:06;14.50;99.90
19538;DHT22;9914;51.008;4.300;2022-10-13T06:44:32;14.50;99.90
19538;DHT22;9914;51.008;4.300;2022-10-13T06:46:58;14.60;99.90
19538;DHT22;9914;51.008;4.300;2022-10-13T06:49:23;14.60;99.90
19538;DHT22;9914;51.008;4.300;2022-10-13T06:51:49;14.50;99.90
19538;DHT22;9914;51.008;4.300;2022-10-13T06:54:15;14.40;99.90
19538;DHT22;9914;51.008;4.300;2022-10-13T06:56:41;14.40;99.90
19538;DHT22;9914;51.008;4.300;2022-10-13T06:59:07;14.40;99.90
19538;DHT22;9914;51.008;4.300;2022-10-13T07:01:32;14.60;99.90
19538;DHT22;9914;51.008;4.300;2022-10-13T07:03:58;14.70;99.90
19538;DHT22;9914;51.008;4.300;2022-10-13T07:06:23;14.70;99.90
19538;DHT22;9914;51.008;4.300;2022-10-13T07:08:49;14.60;99.90
19538;DHT22;9914;51.008;4.300;2022-10-13T07:11:15;14.50;99.90
19538;DHT22;9914;51.008;4.300;2022-10-13T07:13:43;14.50;99.90
19538;DHT22;9914;51.008;4.300;2022-10-13T07:16:09;14.60;99.90
19538;DHT22;9914;51.008;4.300;2022-10-13T07:18:35;14.80;99.90
19538;DHT22;9914;51.008;4.300;2022-10-13T07:21:01;14.80;99.90
19538;DHT22;9914;51.008;4.300;2022-10-13T07:23:28;14.90;99.90
19538;DHT22;9914;51.008;4.300;2022-10-13T07:25:54;15.00;99.90
19538;DHT22;9914;51.008;4.300;2022-10-13T07:28:25;15.00;99.90
19538;DHT22;9914;51.008;4.300;2022-10-13T07:30:51;15.00;99.90
19538;DHT22;9914;51.008;4.300;2022-10-13T07:33:18;14.90;99.90
19538;DHT22;9914;51.008;4.300;2022-10-13T07:35:43;14.90;99.90
19538;DHT22;9914;51.008;4.300;2022-10-13T07:38:10;15.00;99.90
19538;DHT22;9914;51.008;4.300;2022-10-13T07:40:37;15.10;99.90
19538;DHT22;9914;51.008;4.300;2022-10-13T07:43:03;15.10;99.90
19538;DHT22;9914;51.008;4.300;2022-10-13T07:45:29;15.20;99.90
19538;DHT22;9914;51.008;4.300;2022-10-13T07:47:55;15.20;99.90
19538;DHT22;9914;51.008;4.300;2022-10-13T07:50:21;15.20;99.90
19538;DHT22;9914;51.008;4.300;2022-10-13T07:52:46;15.30;99.90
19538;DHT22;9914;51.008;4.300;2022-10-13T07:55:12;15.40;99.90
19538;DHT22;9914;51.008;4.300;2022-10-13T07:57:38;15.30;99.90
19538;DHT22;9914;51.008;4.300;2022-10-13T08:00:04;15.30;99.90
19538;DHT22;9914;51.008;4.300;2022-10-13T08:02:30;15.30;99.90
19538;DHT22;9914;51.008;4.300;2022-10-13T08:04:56;15.30;99.90
19538;DHT22;9914;51.008;4.300;2022-10-13T08:07:22;15.50;99.90
19538;DHT22;9914;51.008;4.300;2022-10-13T08:09:47;15.60;99.90
19538;DHT22;9914;51.008;4.300;2022-10-13T08:12:13;15.70;99.90
19538;DHT22;9914;51.008;4.300;2022-10-13T08:14:38;15.80;99.90
19538;DHT22;9914;51.008;4.300;2022-10-13T08:17:04;15.90;99.90
19538;DHT22;9914;51.008;4.300;2022-10-13T08:19:29;16.00;99.90
19538;DHT22;9914;51.008;4.300;2022-10-13T08:21:55;16.00;99.90
19538;DHT22;9914;51.008;4.300;2022-10-13T08:24:21;16.00;99.90
19538;DHT22;9914;51.008;4.300;2022-10-13T08:26:49;15.90;99.90
19538;DHT22;9914;51.008;4.300;2022-10-13T08:29:16;16.00;99.90
19538;DHT22;9914;51.008;4.300;2022-10-13T08:31:42;16.00;99.90
19538;DHT22;9914;51.008;4.300;2022-10-13T08:34:09;16.00;99.90
19538;DHT22;9914;51.008;4.300;2022-10-13T08:36:35;16.10;99.90
19538;DHT22;9914;51.008;4.300;2022-10-13T08:39:01;16.10;99.90
19538;DHT22;9914;51.008;4.300;2022-10-13T08:41:30;16.20;99.90
19538;DHT22;9914;51.008;4.300;2022-10-13T08:44:05;16.30;99.90
19538;DHT22;9914;51.008;4.300;2022-10-13T08:46:52;16.30;99.90
19538;DHT22;9914;51.008;4.300;2022-10-13T08:49:19;16.40;99.90
19538;DHT22;9914;51.008;4.300;2022-10-13T08:51:45;16.30;99.90
19538;DHT22;9914;51.008;4.300;2022-10-13T08:54:14;16.30;99.90
19538;DHT22;9914;51.008;4.300;2022-10-13T08:56:41;16.40;99.90
19538;DHT22;9914;51.008;4.300;2022-10-13T08:59:13;16.30;99.90
19538;DHT22;9914;51.008;4.300;2022-10-13T09:01:40;16.30;99.90
19538;DHT22;9914;51.008;4.300;2022-10-13T09:04:30;16.30;99.90
19538;DHT22;9914;51.008;4.300;2022-10-13T09:07:23;16.40;99.90
19538;DHT22;9914;51.008;4.300;2022-10-13T09:09:52;16.40;99.90
19538;DHT22;9914;51.008;4.300;2022-10-13T09:12:19;16.40;99.90
19538;DHT22;9914;51.008;4.300;2022-10-13T09:15:05;16.40;99.90
19538;DHT22;9914;51.008;4.300;2022-10-13T09:17:33;16.40;99.90
19538;DHT22;9914;51.008;4.300;2022-10-13T09:20:06;16.40;99.90
19538;DHT22;9914;51.008;4.300;2022-10-13T09:22:35;16.40;99.90
19538;DHT22;9914;51.008;4.300;2022-10-13T09:25:17;16.50;99.90
19538;DHT22;9914;51.008;4.300;2022-10-13T09:27:53;16.50;99.90
19538;DHT22;9914;51.008;4.300;2022-10-13T09:33:15;16.40;99.90
19538;DHT22;9914;51.008;4.300;2022-10-13T09:35:48;16.40;99.90
19538;DHT22;9914;51.008;4.300;2022-10-13T09:40:41;16.50;99.90
19538;DHT22;9914;51.008;4.300;2022-10-13T09:46:23;16.40;99.90
19538;DHT22;9914;51.008;4.300;2022-10-13T09:48:53;16.30;99.90
19538;DHT22;9914;51.008;4.300;2022-10-13T09:51:33;16.30;99.90
19538;DHT22;9914;51.008;4.300;2022-10-13T09:53:59;16.50;99.90
19538;DHT22;9914;51.008;4.300;2022-10-13T09:56:37;16.70;99.90
19538;DHT22;9914;51.008;4.300;2022-10-13T10:01:49;17.10;99.90
19538;DHT22;9914;51.008;4.300;2022-10-13T10:04:21;17.10;99.90
19538;DHT22;9914;51.008;4.300;2022-10-13T10:06:48;17.10;99.90
19538;DHT22;9914;51.008;4.300;2022-10-13T10:11:49;17.40;99.90
19538;DHT22;9914;51.008;4.300;2022-10-13T10:14:26;17.50;99.90
19538;DHT22;9914;51.008;4.300;2022-10-13T10:33:56;17.30;99.90
19538;DHT22;9914;51.008;4.300;2022-10-13T10:37:19;17.30;99.90
19538;DHT22;9914;51.008;4.300;2022-10-13T10:39:26;17.20;99.90
19538;DHT22;9914;51.008;4.300;2022-10-13T10:42:10;17.20;99.90
19538;DHT22;9914;51.008;4.300;2022-10-13T10:44:45;17.00;99.90
19538;DHT22;9914;51.008;4.300;2022-10-13T10:47:27;17.00;99.90
19538;DHT22;9914;51.008;4.300;2022-10-13T10:50:02;17.00;99.90
19538;DHT22;9914;51.008;4.300;2022-10-13T10:52:42;17.00;99.90
19538;DHT22;9914;51.008;4.300;2022-10-13T11:00:28;16.70;99.90
19538;DHT22;9914;51.008;4.300;2022-10-13T11:03:06;16.70;99.90
19538;DHT22;9914;51.008;4.300;2022-10-13T11:08:45;16.80;99.90
19538;DHT22;9914;51.008;4.300;2022-10-13T11:13:56;16.80;99.90
19538;DHT22;9914;51.008;4.300;2022-10-13T11:16:31;16.70;99.90
19538;DHT22;9914;51.008;4.300;2022-10-13T11:18:59;16.70;99.90
19538;DHT22;9914;51.008;4.300;2022-10-13T11:37:43;17.50;99.90
19538;DHT22;9914;51.008;4.300;2022-10-13T11:48:49;17.90;99.90
19538;DHT22;9914;51.008;4.300;2022-10-13T11:51:29;17.80;99.90
19538;DHT22;9914;51.008;4.300;2022-10-13T11:54:18;17.70;99.90
19538;DHT22;9914;51.008;4.300;2022-10-13T11:56:50;17.80;99.90
19538;DHT22;9914;51.008;4.300;2022-10-13T12:01:46;17.50;99.90
19538;DHT22;9914;51.008;4.300;2022-10-13T12:04:13;17.40;99.90
19538;DHT22;9914;51.008;4.300;2022-10-13T12:06:39;17.30;99.90
19538;DHT22;9914;51.008;4.300;2022-10-13T12:09:19;17.30;99.90
19538;DHT22;9914;51.008;4.300;2022-10-13T12:11:46;17.20;99.90
19538;DHT22;9914;51.008;4.300;2022-10-13T12:14:21;17.20;99.90
19538;DHT22;9914;51.008;4.300;2022-10-13T12:16:54;17.10;99.90
19538;DHT22;9914;51.008;4.300;2022-10-13T12:19:24;16.90;99.90
19538;DHT22;9914;51.008;4.300;2022-10-13T12:21:52;16.60;99.90
19538;DHT22;9914;51.008;4.300;2022-10-13T12:24:23;16.30;99.90
19538;DHT22;9914;51.008;4.300;2022-10-13T12:26:50;16.30;99.90
19538;DHT22;9914;51.008;4.300;2022-10-13T12:29:16;16.30;99.90
19538;DHT22;9914;51.008;4.300;2022-10-13T12:31:45;16.40;99.90
19538;DHT22;9914;51.008;4.300;2022-10-13T12:37:13;16.50;99.90
19538;DHT22;9914;51.008;4.300;2022-10-13T12:39:38;16.60;99.90
19538;DHT22;9914;51.008;4.300;2022-10-13T12:42:06;16.50;99.90
19538;DHT22;9914;51.008;4.300;2022-10-13T12:44:32;16.30;99.90
19538;DHT22;9914;51.008;4.300;2022-10-13T12:46:59;16.40;99.90
19538;DHT22;9914;51.008;4.300;2022-10-13T12:49:31;16.40;99.90
19538;DHT22;9914;51.008;4.300;2022-10-13T12:52:12;16.50;99.90
19538;DHT22;9914;51.008;4.300;2022-10-13T12:54:50;16.70;99.90
19538;DHT22;9914;51.008;4.300;2022-10-13T12:59:43;16.90;99.90
19538;DHT22;9914;51.008;4.300;2022-10-13T13:02:24;16.90;99.90
19538;DHT22;9914;51.008;4.300;2022-10-13T13:04:51;16.90;99.90
19538;DHT22;9914;51.008;4.300;2022-10-13T13:07:32;16.80;99.90
19538;DHT22;9914;51.008;4.300;2022-10-13T13:10:17;16.60;99.90
19538;DHT22;9914;51.008;4.300;2022-10-13T13:12:44;16.50;99.90
19538;DHT22;9914;51.008;4.300;2022-10-13T13:17:45;16.30;99.90
19538;DHT22;9914;51.008;4.300;2022-10-13T13:20:27;16.30;99.90
19538;DHT22;9914;51.008;4.300;2022-10-13T13:22:54;16.40;99.90
19538;DHT22;9914;51.008;4.300;2022-10-13T13:25:20;16.40;99.90
19538;DHT22;9914;51.008;4.300;2022-10-13T13:27:45;16.50;99.90
19538;DHT22;9914;51.008;4.300;2022-10-13T13:30:14;16.50;99.90
19538;DHT22;9914;51.008;4.300;2022-10-13T13:32:40;16.60;99.90
19538;DHT22;9914;51.008;4.300;2022-10-13T13:35:06;16.60;99.90
19538;DHT22;9914;51.008;4.300;2022-10-13T13:37:41;16.60;99.90
19538;DHT22;9914;51.008;4.300;2022-10-13T13:40:21;16.70;99.90
19538;DHT22;9914;51.008;4.300;2022-10-13T13:42:47;16.70;99.90
19538;DHT22;9914;51.008;4.300;2022-10-13T13:45:14;16.80;99.90
19538;DHT22;9914;51.008;4.300;2022-10-13T13:47:39;16.70;99.90
19538;DHT22;9914;51.008;4.300;2022-10-13T13:50:19;16.80;99.90
19538;DHT22;9914;51.008;4.300;2022-10-13T13:52:46;16.90;99.90
19538;DHT22;9914;51.008;4.300;2022-10-13T13:55:12;17.00;99.90
19538;DHT22;9914;51.008;4.300;2022-10-13T13:57:37;17.20;99.90
19538;DHT22;9914;51.008;4.300;2022-10-13T14:00:04;17.50;99.90
19538;DHT22;9914;51.008;4.300;2022-10-13T14:02:30;17.60;99.90
19538;DHT22;9914;51.008;4.300;2022-10-13T14:04:56;17.80;99.90
19538;DHT22;9914;51.008;4.300;2022-10-13T14:07:21;18.00;99.90
19538;DHT22;9914;51.008;4.300;2022-10-13T14:09:47;18.30;99.90
19538;DHT22;9914;51.008;4.300;2022-10-13T14:12:12;18.40;99.90
19538;DHT22;9914;51.008;4.300;2022-10-13T14:14:38;18.60;99.90
19538;DHT22;9914;51.008;4.300;2022-10-13T14:17:04;18.60;99.90
19538;DHT22;9914;51.008;4.300;2022-10-13T14:19:30;18.60;99.90
19538;DHT22;9914;51.008;4.300;2022-10-13T14:21:56;18.60;99.90
19538;DHT22;9914;51.008;4.300;2022-10-13T14:24:22;18.40;99.90
19538;DHT22;9914;51.008;4.300;2022-10-13T14:26:47;18.10;99.90
19538;DHT22;9914;51.008;4.300;2022-10-13T14:29:13;17.90;99.90
19538;DHT22;9914;51.008;4.300;2022-10-13T14:31:39;17.70;99.90
19538;DHT22;9914;51.008;4.300;2022-10-13T14:34:05;17.50;99.90
19538;DHT22;9914;51.008;4.300;2022-10-13T14:36:30;17.40;99.90
19538;DHT22;9914;51.008;4.300;2022-10-13T14:38:56;17.30;99.90
19538;DHT22;9914;51.008;4.300;2022-10-13T14:41:22;17.30;99.90
19538;DHT22;9914;51.008;4.300;2022-10-13T14:43:54;17.20;99.90
19538;DHT22;9914;51.008;4.300;2022-10-13T14:46:20;17.20;99.90
19538;DHT22;9914;51.008;4.300;2022-10-13T14:48:46;17.10;99.90
19538;DHT22;9914;51.008;4.300;2022-10-13T14:51:12;17.20;99.90
19538;DHT22;9914;51.008;4.300;2022-10-13T14:53:39;17.20;99.90
19538;DHT22;9914;51.008;4.300;2022-10-13T14:56:21;17.20;99.90
19538;DHT22;9914;51.008;4.300;2022-10-13T14:58:48;17.10;99.90
19538;DHT22;9914;51.008;4.300;2022-10-13T15:01:14;17.10;99.90
19538;DHT22;9914;51.008;4.300;2022-10-13T15:03:40;17.10;99.90
19538;DHT22;9914;51.008;4.300;2022-10-13T15:06:15;17.10;99.90
19538;DHT22;9914;51.008;4.300;2022-10-13T15:08:41;17.10;99.90
19538;DHT22;9914;51.008;4.300;2022-10-13T15:11:07;17.10;99.90
19538;DHT22;9914;51.008;4.300;2022-10-13T15:13:33;17.20;99.90
19538;DHT22;9914;51.008;4.300;2022-10-13T15:15:59;17.20;99.90
19538;DHT22;9914;51.008;4.300;2022-10-13T15:18:29;17.30;99.90
19538;DHT22;9914;51.008;4.300;2022-10-13T15:20:55;17.20;99.90
19538;DHT22;9914;51.008;4.300;2022-10-13T15:23:21;17.20;99.90
19538;DHT22;9914;51.008;4.300;2022-10-13T15:25:58;17.30;99.90
19538;DHT22;9914;51.008;4.300;2022-10-13T15:28:27;17.30;99.90
19538;DHT22;9914;51.008;4.300;2022-10-13T15:30:53;17.30;99.90
19538;DHT22;9914;51.008;4.300;2022-10-13T15:33:19;17.30;99.90
19538;DHT22;9914;51.008;4.300;2022-10-13T15:35:49;17.30;99.90
19538;DHT22;9914;51.008;4.300;2022-10-13T15:38:15;17.40;99.90
19538;DHT22;9914;51.008;4.300;2022-10-13T15:40:41;17.40;99.90
19538;DHT22;9914;51.008;4.300;2022-10-13T15:43:07;17.30;99.90
19538;DHT22;9914;51.008;4.300;2022-10-13T15:45:33;17.20;99.90
19538;DHT22;9914;51.008;4.300;2022-10-13T15:47:59;17.10;99.90
19538;DHT22;9914;51.008;4.300;2022-10-13T15:50:25;17.00;99.90
19538;DHT22;9914;51.008;4.300;2022-10-13T15:52:51;16.80;99.90
19538;DHT22;9914;51.008;4.300;2022-10-13T15:55:17;16.70;99.90
19538;DHT22;9914;51.008;4.300;2022-10-13T15:57:43;16.60;99.90
19538;DHT22;9914;51.008;4.300;2022-10-13T16:00:11;16.40;99.90
19538;DHT22;9914;51.008;4.300;2022-10-13T16:02:37;16.40;99.90
19538;DHT22;9914;51.008;4.300;2022-10-13T16:05:02;16.30;99.90
19538;DHT22;9914;51.008;4.300;2022-10-13T16:07:33;16.30;99.90
19538;DHT22;9914;51.008;4.300;2022-10-13T16:09:59;16.20;99.90
19538;DHT22;9914;51.008;4.300;2022-10-13T16:12:26;16.30;99.90
19538;DHT22;9914;51.008;4.300;2022-10-13T16:14:52;16.30;99.90
19538;DHT22;9914;51.008;4.300;2022-10-13T16:17:18;16.30;99.90
19538;DHT22;9914;51.008;4.300;2022-10-13T16:19:43;16.30;99.90
19538;DHT22;9914;51.008;4.300;2022-10-13T16:22:12;16.30;99.90
19538;DHT22;9914;51.008;4.300;2022-10-13T16:24:38;16.30;99.90
19538;DHT22;9914;51.008;4.300;2022-10-13T16:27:05;16.30;99.90
19538;DHT22;9914;51.008;4.300;2022-10-13T16:29:31;16.30;99.90
19538;DHT22;9914;51.008;4.300;2022-10-13T16:31:57;16.20;99.90
19538;DHT22;9914;51.008;4.300;2022-10-13T16:34:25;16.00;99.90
19538;DHT22;9914;51.008;4.300;2022-10-13T16:36:50;16.20;99.90
19538;DHT22;9914;51.008;4.300;2022-10-13T16:39:16;16.30;99.90
19538;DHT22;9914;51.008;4.300;2022-10-13T16:41:41;16.30;99.90
19538;DHT22;9914;51.008;4.300;2022-10-13T16:44:07;16.30;99.90
19538;DHT22;9914;51.008;4.300;2022-10-13T16:46:33;16.30;99.90
19538;DHT22;9914;51.008;4.300;2022-10-13T16:48:58;16.30;99.90
19538;DHT22;9914;51.008;4.300;2022-10-13T16:51:25;16.20;99.90
19538;DHT22;9914;51.008;4.300;2022-10-13T16:53:55;16.20;99.90
19538;DHT22;9914;51.008;4.300;2022-10-13T16:56:22;16.20;99.90
19538;DHT22;9914;51.008;4.300;2022-10-13T16:58:50;16.20;99.90
19538;DHT22;9914;51.008;4.300;2022-10-13T17:01:17;16.20;99.90
19538;DHT22;9914;51.008;4.300;2022-10-13T17:03:43;16.10;99.90
19538;DHT22;9914;51.008;4.300;2022-10-13T17:06:11;16.20;99.90
19538;DHT22;9914;51.008;4.300;2022-10-13T17:08:37;16.10;99.90
19538;DHT22;9914;51.008;4.300;2022-10-13T17:11:04;16.10;99.90
19538;DHT22;9914;51.008;4.300;2022-10-13T17:13:31;16.00;99.90
19538;DHT22;9914;51.008;4.300;2022-10-13T17:15:58;16.00;99.90
19538;DHT22;9914;51.008;4.300;2022-10-13T17:18:24;16.00;99.90
19538;DHT22;9914;51.008;4.300;2022-10-13T17:20:56;16.00;99.90
19538;DHT22;9914;51.008;4.300;2022-10-13T17:23:23;15.90;99.90
19538;DHT22;9914;51.008;4.300;2022-10-13T17:25:49;15.90;99.90
19538;DHT22;9914;51.008;4.300;2022-10-13T17:28:16;15.90;99.90
19538;DHT22;9914;51.008;4.300;2022-10-13T17:30:42;15.90;99.90
19538;DHT22;9914;51.008;4.300;2022-10-13T17:33:09;16.00;99.90